createdAt,value
2018-04-09T00:01:35.315Z,97.70
2018-04-09T00:04:01.575Z,97.70
2018-04-09T00:06:27.984Z,97.60
2018-04-09T00:08:54.313Z,97.90
2018-04-09T00:11:20.606Z,97.90
2018-04-09T00:13:46.956Z,97.80
2018-04-09T00:16:14.577Z,97.30
2018-04-09T00:18:41.126Z,97.80
2018-04-09T00:21:07.536Z,97.90
2018-04-09T00:23:33.750Z,98.00
2018-04-09T00:26:01.949Z,97.90
2018-04-09T00:28:28.486Z,97.90
2018-04-09T00:30:54.672Z,97.90
2018-04-09T00:33:21.030Z,97.80
2018-04-09T00:35:47.286Z,97.90
2018-04-09T00:38:13.488Z,97.90
2018-04-09T00:40:39.684Z,98.30
2018-04-09T00:43:06.090Z,98.30
2018-04-09T00:45:32.272Z,98.50
2018-04-09T00:47:59.606Z,98.30
2018-04-09T00:50:25.832Z,98.30
2018-04-09T00:52:53.108Z,97.90
2018-04-09T00:55:19.283Z,98.40
2018-04-09T00:57:45.479Z,98.30
2018-04-09T01:00:11.960Z,98.40
2018-04-09T01:02:38.256Z,98.50
2018-04-09T01:05:04.465Z,98.60
2018-04-09T01:07:30.662Z,98.50
2018-04-09T01:09:58.339Z,98.20
2018-04-09T01:12:24.504Z,98.40
2018-04-09T01:14:53.289Z,98.20
2018-04-09T01:17:20.574Z,98.10
2018-04-09T01:19:46.764Z,98.60
2018-04-09T01:22:13.031Z,98.80
2018-04-09T01:24:39.330Z,98.80
2018-04-09T01:27:05.507Z,98.80
2018-04-09T01:29:31.668Z,98.60
2018-04-09T01:31:57.867Z,98.80
2018-04-09T01:34:24.079Z,98.90
2018-04-09T01:36:50.227Z,99.00
2018-04-09T01:39:17.504Z,98.40
2018-04-09T01:41:43.718Z,98.90
2018-04-09T01:44:09.871Z,98.90
2018-04-09T01:46:36.078Z,98.80
2018-04-09T01:49:02.593Z,99.00
2018-04-09T01:51:28.752Z,99.00
2018-04-09T01:53:54.932Z,98.90
2018-04-09T01:56:21.104Z,99.00
2018-04-09T01:58:47.261Z,99.30
2018-04-09T02:01:14.575Z,98.70
2018-04-09T02:03:40.824Z,99.00
2018-04-09T02:06:08.124Z,98.80
2018-04-09T02:08:34.292Z,99.30
2018-04-09T02:11:01.573Z,98.80
2018-04-09T02:13:27.741Z,99.20
2018-04-09T02:15:54.640Z,99.20
2018-04-09T02:18:20.812Z,99.20
2018-04-09T02:20:47.986Z,99.30
2018-04-09T02:23:14.163Z,99.40
2018-04-09T02:25:40.343Z,99.60
2018-04-09T02:28:07.635Z,99.20
2018-04-09T02:30:33.811Z,99.60
2018-04-09T02:32:59.968Z,99.70
2018-04-09T02:35:26.158Z,99.80
2018-04-09T02:37:52.331Z,99.90
2018-04-09T02:40:19.259Z,99.80
2018-04-09T02:42:46.578Z,99.50
2018-04-09T02:45:12.747Z,99.90
2018-04-09T02:47:38.933Z,99.90
2018-04-09T02:50:05.858Z,99.90
2018-04-09T02:52:32.782Z,99.90
2018-04-09T02:55:00.066Z,99.50
2018-04-09T02:57:26.320Z,99.90
2018-04-09T02:59:53.128Z,99.90
2018-04-09T03:02:19.324Z,99.90
2018-04-09T03:04:45.476Z,99.90
2018-04-09T03:07:11.660Z,99.90
2018-04-09T03:09:37.813Z,99.90
2018-04-09T03:12:03.987Z,99.90
2018-04-09T03:14:30.200Z,99.90
2018-04-09T03:16:56.439Z,99.90
2018-04-09T03:19:23.779Z,99.90
2018-04-09T03:21:50.892Z,99.90
2018-04-09T03:24:17.115Z,99.90
2018-04-09T03:26:45.606Z,99.90
2018-04-09T03:29:15.061Z,99.90
2018-04-09T03:31:43.688Z,99.90
2018-04-09T03:34:12.227Z,99.90
2018-04-09T03:36:38.869Z,99.90
2018-04-09T03:39:05.033Z,99.90
2018-04-09T03:41:31.209Z,99.90
2018-04-09T03:43:57.422Z,99.90
2018-04-09T03:46:23.599Z,99.90
2018-04-09T03:48:50.021Z,99.90
2018-04-09T03:51:16.164Z,99.90
2018-04-09T03:53:42.339Z,99.90
2018-04-09T03:56:08.640Z,99.90
2018-04-09T03:58:34.833Z,99.90
2018-04-09T04:01:01.076Z,99.90
2018-04-09T04:03:27.493Z,99.90
2018-04-09T04:05:54.543Z,99.90
2018-04-09T04:08:20.757Z,99.90
2018-04-09T04:10:47.903Z,99.90
2018-04-09T04:13:14.932Z,99.90
2018-04-09T04:15:53.614Z,99.90
2018-04-09T04:18:32.042Z,99.90
2018-04-09T04:21:10.968Z,99.90
2018-04-09T04:23:37.140Z,99.90
2018-04-09T04:26:03.312Z,99.90
2018-04-09T04:28:29.466Z,99.90
2018-04-09T04:30:55.756Z,99.90
2018-04-09T04:33:21.992Z,99.90
2018-04-09T04:35:48.436Z,99.90
2018-04-09T04:38:15.002Z,99.90
2018-04-09T04:40:41.183Z,99.90
2018-04-09T04:43:07.369Z,99.90
2018-04-09T04:45:34.659Z,99.90
2018-04-09T04:48:00.852Z,99.90
2018-04-09T04:50:27.083Z,99.90
2018-04-09T04:52:53.279Z,99.90
2018-04-09T04:55:19.480Z,99.90
2018-04-09T04:57:45.632Z,99.90
2018-04-09T05:00:11.828Z,99.90
2018-04-09T05:02:38.003Z,99.90
2018-04-09T05:05:05.674Z,99.90
2018-04-09T05:07:31.911Z,99.90
2018-04-09T05:09:58.093Z,99.90
2018-04-09T05:12:24.275Z,99.90
2018-04-09T05:14:50.636Z,99.90
2018-04-09T05:17:18.124Z,99.90
2018-04-09T05:19:44.327Z,99.90
2018-04-09T05:22:10.820Z,99.90
2018-04-09T05:24:37.028Z,99.90
2018-04-09T05:27:03.229Z,99.90
2018-04-09T05:29:34.111Z,99.90
2018-04-09T05:32:00.314Z,99.90
2018-04-09T05:34:26.458Z,99.90
2018-04-09T05:36:53.925Z,99.90
2018-04-09T05:39:20.088Z,99.90
2018-04-09T05:41:46.247Z,99.90
2018-04-09T05:44:12.425Z,99.90
2018-04-09T05:46:39.341Z,99.90
2018-04-09T05:49:06.311Z,99.90
2018-04-09T05:51:32.567Z,99.90
2018-04-09T05:53:58.775Z,99.90
2018-04-09T05:56:24.945Z,99.90
2018-04-09T05:58:52.219Z,99.90
2018-04-09T06:01:18.415Z,99.90
2018-04-09T06:03:44.601Z,99.90
2018-04-09T06:06:12.248Z,99.90
2018-04-09T06:08:39.922Z,99.90
2018-04-09T06:11:06.079Z,99.90
2018-04-09T06:13:32.295Z,99.90
2018-04-09T06:15:58.474Z,99.90
2018-04-09T06:18:24.663Z,99.90
2018-04-09T06:20:50.860Z,99.90
2018-04-09T06:23:18.363Z,99.60
2018-04-09T06:25:44.592Z,99.90
2018-04-09T06:28:10.775Z,99.90
2018-04-09T06:30:36.956Z,99.90
2018-04-09T06:33:03.175Z,99.80
2018-04-09T06:35:29.372Z,99.80
2018-04-09T06:37:55.586Z,99.70
2018-04-09T06:40:22.923Z,99.30
2018-04-09T06:42:49.096Z,99.70
2018-04-09T06:45:15.331Z,99.40
2018-04-09T06:47:41.536Z,99.50
2018-04-09T06:50:07.736Z,99.60
2018-04-09T06:52:33.919Z,99.60
2018-04-09T06:55:00.132Z,99.30
2018-04-09T06:57:26.296Z,99.30
2018-04-09T06:59:52.492Z,99.30
2018-04-09T07:02:18.693Z,99.20
2018-04-09T07:04:44.860Z,99.30
2018-04-09T07:07:11.857Z,99.20
2018-04-09T07:09:38.067Z,99.50
2018-04-09T07:12:04.296Z,99.40
2018-04-09T07:14:30.491Z,99.40
2018-04-09T07:16:56.692Z,99.30
2018-04-09T07:19:22.895Z,99.50
2018-04-09T07:21:49.075Z,99.40
2018-04-09T07:24:16.741Z,99.50
2018-04-09T07:26:42.920Z,99.40
2018-04-09T07:29:09.095Z,99.30
2018-04-09T07:31:35.348Z,99.30
2018-04-09T07:34:01.516Z,99.20
2018-04-09T07:36:27.667Z,99.20
2018-04-09T07:38:53.892Z,99.10
2018-04-09T07:41:21.180Z,98.20
2018-04-09T07:43:47.375Z,98.60
2018-04-09T07:46:13.550Z,98.50
2018-04-09T07:48:40.828Z,97.60
2018-04-09T07:51:07.052Z,98.10
2018-04-09T07:53:33.224Z,98.00
2018-04-09T07:56:00.540Z,97.10
2018-04-09T07:58:26.710Z,97.50
2018-04-09T08:00:52.905Z,97.50
2018-04-09T08:03:19.086Z,97.10
2018-04-09T08:05:45.263Z,96.90
2018-04-09T08:08:11.444Z,96.90
2018-04-09T08:10:37.643Z,96.50
2018-04-09T08:13:04.963Z,96.00
2018-04-09T08:15:31.148Z,96.50
2018-04-09T08:17:57.320Z,96.30
2018-04-09T08:20:23.513Z,96.50
2018-04-09T08:22:50.788Z,95.70
2018-04-09T08:25:16.962Z,96.30
2018-04-09T08:27:44.276Z,95.50
2018-04-09T08:30:10.592Z,96.00
2018-04-09T08:32:36.784Z,96.00
2018-04-09T08:35:02.975Z,95.60
2018-04-09T08:37:29.340Z,95.20
2018-04-09T08:39:55.553Z,95.10
2018-04-09T08:42:21.761Z,94.90
2018-04-09T08:44:47.961Z,95.10
2018-04-09T08:47:14.132Z,94.80
2018-04-09T08:49:40.319Z,94.80
2018-04-09T08:52:06.567Z,94.30
2018-04-09T08:54:32.824Z,94.20
2018-04-09T08:56:59.028Z,93.90
2018-04-09T08:59:25.200Z,93.60
2018-04-09T09:01:52.152Z,93.40
2018-04-09T09:04:18.313Z,93.40
2018-04-09T09:06:44.471Z,93.30
2018-04-09T09:09:10.656Z,93.20
2018-04-09T09:11:37.556Z,92.30
2018-04-09T09:14:03.812Z,92.30
2018-04-09T09:16:30.804Z,92.30
2018-04-09T09:18:58.015Z,91.40
2018-04-09T09:21:24.241Z,91.90
2018-04-09T09:23:50.403Z,92.00
2018-04-09T09:26:18.172Z,92.10
2018-04-09T09:28:44.372Z,92.00
2018-04-09T09:31:10.548Z,91.70
2018-04-09T09:33:36.732Z,91.30
2018-04-09T09:36:02.947Z,91.50
2018-04-09T09:38:29.150Z,91.30
2018-04-09T09:40:55.334Z,91.00
2018-04-09T09:43:21.526Z,90.50
2018-04-09T09:45:48.823Z,88.10
2018-04-09T09:48:15.015Z,89.20
2018-04-09T09:50:41.164Z,88.60
2018-04-09T09:53:07.351Z,89.10
2018-04-09T09:55:33.611Z,89.10
2018-04-09T09:57:59.757Z,88.60
2018-04-09T10:00:31.941Z,88.80
2018-04-09T10:02:58.149Z,89.70
2018-04-09T10:05:32.819Z,89.40
2018-04-09T10:07:59.736Z,89.00
2018-04-09T10:10:25.943Z,88.90
2018-04-09T10:12:52.133Z,88.80
2018-04-09T10:15:18.320Z,89.00
2018-04-09T10:17:44.521Z,88.30
2018-04-09T10:20:10.690Z,89.00
2018-04-09T10:22:36.853Z,88.00
2018-04-09T10:25:03.025Z,88.00
2018-04-09T10:27:29.187Z,87.90
2018-04-09T10:29:55.368Z,87.90
2018-04-09T10:32:22.311Z,87.50
2018-04-09T10:34:48.481Z,87.30
2018-04-09T10:37:14.669Z,87.20
2018-04-09T10:39:40.844Z,87.10
2018-04-09T10:42:07.015Z,86.90
2018-04-09T10:44:33.179Z,86.90
2018-04-09T10:46:59.344Z,86.90
2018-04-09T10:49:25.529Z,85.50
2018-04-09T10:51:52.266Z,85.60
2018-04-09T10:54:18.453Z,84.70
2018-04-09T10:56:44.649Z,84.80
2018-04-09T10:59:10.803Z,84.80
2018-04-09T11:01:36.980Z,84.90
2018-04-09T11:04:03.219Z,84.70
2018-04-09T11:06:29.387Z,84.40
2018-04-09T11:08:55.555Z,84.10
2018-04-09T11:11:21.735Z,83.60
2018-04-09T11:13:47.966Z,83.20
2018-04-09T11:16:14.834Z,82.00
2018-04-09T11:18:41.011Z,81.80
2018-04-09T11:21:07.180Z,81.90
2018-04-09T11:23:33.532Z,82.70
2018-04-09T11:25:59.703Z,82.50
2018-04-09T11:28:26.663Z,81.80
2018-04-09T11:30:52.809Z,80.20
2018-04-09T11:33:19.071Z,80.20
2018-04-09T11:35:46.473Z,80.20
2018-04-09T11:38:12.790Z,79.80
2018-04-09T11:40:40.024Z,79.60
2018-04-09T11:43:06.238Z,79.50
2018-04-09T11:45:32.374Z,79.30
2018-04-09T11:47:58.566Z,78.90
2018-04-09T11:50:24.729Z,78.90
2018-04-09T11:52:50.983Z,79.10
2018-04-09T11:55:17.155Z,79.30
2018-04-09T12:00:09.131Z,78.30
2018-04-09T12:02:35.331Z,77.10
2018-04-09T12:05:01.494Z,76.60
2018-04-09T12:07:28.437Z,75.50
2018-04-09T12:09:54.615Z,74.30
2018-04-09T12:12:20.813Z,74.40
2018-04-09T12:14:47.023Z,75.40
2018-04-09T12:17:13.189Z,75.50
2018-04-09T12:19:39.409Z,75.80
2018-04-09T12:22:05.627Z,75.80
2018-04-09T12:24:31.818Z,75.20
2018-04-09T12:26:58.031Z,74.00
2018-04-09T12:29:24.211Z,73.60
2018-04-09T12:31:50.426Z,73.20
2018-04-09T12:34:16.637Z,73.40
2018-04-09T12:36:42.922Z,73.90
2018-04-09T12:39:09.154Z,74.40
2018-04-09T12:41:35.914Z,75.90
2018-04-09T12:44:02.691Z,77.20
2018-04-09T12:46:28.861Z,76.80
2018-04-09T12:48:55.058Z,76.50
2018-04-09T12:51:21.998Z,77.00
2018-04-09T12:53:49.772Z,77.90
2018-04-09T12:56:16.056Z,78.50
2018-04-09T12:58:42.985Z,79.00
2018-04-09T13:03:36.256Z,79.60
2018-04-09T13:06:02.923Z,80.30
2018-04-09T13:08:29.486Z,80.60
2018-04-09T13:10:56.427Z,81.10
2018-04-09T13:13:22.734Z,80.90
2018-04-09T13:15:49.703Z,81.30
2018-04-09T13:18:16.271Z,81.70
2018-04-09T13:20:42.923Z,82.10
2018-04-09T13:23:09.172Z,82.30
2018-04-09T13:25:35.361Z,82.40
2018-04-09T13:28:01.683Z,82.50
2018-04-09T13:30:27.923Z,82.00
2018-04-09T13:32:54.133Z,82.30
2018-04-09T13:35:20.297Z,82.50
2018-04-09T13:37:46.863Z,83.00
2018-04-09T13:40:13.069Z,83.50
2018-04-09T13:42:39.304Z,83.20
2018-04-09T13:45:05.555Z,83.80
2018-04-09T13:47:32.837Z,83.20
2018-04-09T13:49:59.039Z,84.60
2018-04-09T13:52:25.205Z,84.30
2018-04-09T13:54:52.854Z,84.20
2018-04-09T13:57:19.044Z,84.70
2018-04-09T13:59:45.207Z,84.50
2018-04-09T14:02:11.377Z,84.60
2018-04-09T14:04:37.560Z,84.60
2018-04-09T14:07:03.745Z,82.20
2018-04-09T14:09:29.962Z,82.00
2018-04-09T14:11:56.145Z,80.60
2018-04-09T14:14:22.338Z,79.30
2018-04-09T14:16:48.521Z,78.50
2018-04-09T14:19:14.706Z,78.20
2018-04-09T14:21:40.960Z,78.50
2018-04-09T14:24:07.169Z,79.50
2018-04-09T14:26:34.246Z,79.90
2018-04-09T14:29:00.417Z,81.20
2018-04-09T14:31:26.582Z,81.50
2018-04-09T14:33:53.497Z,82.10
2018-04-09T14:36:19.670Z,82.60
2018-04-09T14:38:45.868Z,83.80
2018-04-09T14:41:12.061Z,84.10
2018-04-09T14:43:38.243Z,83.30
2018-04-09T14:46:04.453Z,83.50
2018-04-09T14:48:30.774Z,83.80
2018-04-09T14:50:56.946Z,83.70
2018-04-09T14:53:23.188Z,83.90
2018-04-09T14:55:49.362Z,83.90
2018-04-09T14:58:15.553Z,84.30
2018-04-09T15:00:42.461Z,84.70
2018-04-09T15:03:08.638Z,85.00
2018-04-09T15:05:34.809Z,85.20
2018-04-09T15:08:00.996Z,85.40
2018-04-09T15:10:27.159Z,85.50
2018-04-09T15:12:53.361Z,85.60
2018-04-09T15:15:19.561Z,85.80
2018-04-09T15:17:45.817Z,86.00
2018-04-09T15:20:12.023Z,86.60
2018-04-09T15:22:38.186Z,87.30
2018-04-09T15:25:04.587Z,88.40
2018-04-09T15:27:30.807Z,88.60
2018-04-09T15:29:57.734Z,89.80
2018-04-09T15:32:23.991Z,90.10
2018-04-09T15:34:50.153Z,90.30
2018-04-09T15:37:16.306Z,90.50
2018-04-09T15:39:42.543Z,90.70
2018-04-09T15:42:08.725Z,90.80
2018-04-09T15:44:35.657Z,91.20
2018-04-09T15:47:02.583Z,91.30
2018-04-09T15:49:29.513Z,91.40
2018-04-09T15:51:56.421Z,91.40
2018-04-09T15:54:22.606Z,91.50
2018-04-09T15:56:48.765Z,91.20
2018-04-09T15:59:14.939Z,91.20
2018-04-09T16:01:41.121Z,90.70
2018-04-09T16:04:07.287Z,90.70
2018-04-09T16:06:33.473Z,90.80
2018-04-09T16:08:59.886Z,91.00
2018-04-09T16:11:26.089Z,91.40
2018-04-09T16:13:52.273Z,91.40
2018-04-09T16:16:18.428Z,91.50
2018-04-09T16:18:44.610Z,91.60
2018-04-09T16:21:10.803Z,91.80
2018-04-09T16:23:37.019Z,91.80
2018-04-09T16:26:03.182Z,92.00
2018-04-09T16:28:29.362Z,92.10
2018-04-09T16:30:55.556Z,92.10
2018-04-09T16:33:22.486Z,92.20
2018-04-09T16:35:48.678Z,92.40
2018-04-09T16:38:14.865Z,92.50
2018-04-09T16:40:41.088Z,92.60
2018-04-09T16:43:07.282Z,92.70
2018-04-09T16:45:33.550Z,92.80
2018-04-09T16:48:00.483Z,92.60
2018-04-09T16:50:27.813Z,91.80
2018-04-09T16:52:54.746Z,91.90
2018-04-09T16:55:20.949Z,92.00
2018-04-09T16:57:47.106Z,92.30
2018-04-09T17:00:13.273Z,92.40
2018-04-09T17:02:39.574Z,92.60
2018-04-09T17:05:05.942Z,92.30
2018-04-09T17:07:32.193Z,92.30
2018-04-09T17:09:58.414Z,92.50
2018-04-09T17:12:25.665Z,92.50
2018-04-09T17:14:51.883Z,92.60
2018-04-09T17:17:18.081Z,92.60
2018-04-09T17:19:44.272Z,92.70
2018-04-09T17:22:10.555Z,92.70
2018-04-09T17:24:36.785Z,92.80
2018-04-09T17:27:03.051Z,92.90
2018-04-09T17:29:29.255Z,93.00
2018-04-09T17:31:55.446Z,93.00
2018-04-09T17:34:21.676Z,93.30
2018-04-09T17:36:47.850Z,93.20
2018-04-09T17:39:14.042Z,93.20
2018-04-09T17:41:40.193Z,93.20
2018-04-09T17:44:06.377Z,93.50
2018-04-09T17:46:32.545Z,93.60
2018-04-09T17:48:58.722Z,93.80
2018-04-09T17:51:24.946Z,93.90
2018-04-09T17:53:51.148Z,93.90
2018-04-09T17:56:17.375Z,94.00
2018-04-09T17:58:43.559Z,94.20
2018-04-09T18:01:09.850Z,94.30
2018-04-09T18:03:36.758Z,94.30
2018-04-09T18:06:03.104Z,94.30
2018-04-09T18:08:29.289Z,94.50
2018-04-09T18:10:55.486Z,94.60
2018-04-09T18:13:21.672Z,94.90
2018-04-09T18:15:47.838Z,95.20
2018-04-09T18:18:14.317Z,95.20
2018-04-09T18:20:40.699Z,95.30
2018-04-09T18:23:06.882Z,95.40
2018-04-09T18:25:33.180Z,95.60
2018-04-09T18:27:59.404Z,95.80
2018-04-09T18:30:25.897Z,95.90
2018-04-09T18:32:53.942Z,95.90
2018-04-09T18:35:20.213Z,95.90
2018-04-09T18:37:46.720Z,96.10
2018-04-09T18:40:13.081Z,96.20
2018-04-09T18:42:39.300Z,96.30
2018-04-09T18:45:05.518Z,96.40
2018-04-09T18:47:32.054Z,96.30
2018-04-09T18:49:58.791Z,96.30
2018-04-09T18:52:24.994Z,96.10
2018-04-09T18:54:51.338Z,96.10
2018-04-09T18:57:17.894Z,96.20
2018-04-09T18:59:44.099Z,96.20
2018-04-09T19:02:11.010Z,96.30
2018-04-09T19:04:37.200Z,96.40
2018-04-09T19:07:03.454Z,96.50
2018-04-09T19:09:31.326Z,96.50
2018-04-09T19:11:57.782Z,96.70
2018-04-09T19:14:24.091Z,97.00
2018-04-09T19:16:50.282Z,96.90
2018-04-09T19:19:17.441Z,96.90
2018-04-09T19:21:43.984Z,96.70
2018-04-09T19:24:10.948Z,96.60
2018-04-09T19:26:39.068Z,96.50
2018-04-09T19:29:06.399Z,96.20
2018-04-09T19:31:32.640Z,96.60
2018-04-09T19:33:59.315Z,96.90
2018-04-09T19:44:59.170Z,96.70
2018-04-09T19:47:25.678Z,96.80
2018-04-09T19:49:52.022Z,96.80
2018-04-09T19:52:20.226Z,96.70
2018-04-09T19:54:48.061Z,96.80
2018-04-09T19:57:14.511Z,96.90
2018-04-09T19:59:41.989Z,96.60
2018-04-09T20:02:09.344Z,97.00
2018-04-09T20:04:36.749Z,97.10
2018-04-09T20:07:03.156Z,97.20
2018-04-09T20:09:29.962Z,97.30
2018-04-09T20:12:09.031Z,97.10
2018-04-09T20:14:35.341Z,97.30
2018-04-09T20:17:02.955Z,97.30
2018-04-09T20:19:29.418Z,97.50
2018-04-09T20:21:56.475Z,97.90
2018-04-09T20:24:23.308Z,98.20
2018-04-09T20:26:49.913Z,98.40
2018-04-09T20:29:17.619Z,98.40
2018-04-09T20:31:44.058Z,98.40
2018-04-09T20:34:11.738Z,98.20
2018-04-09T20:36:38.022Z,98.60
2018-04-09T20:39:10.060Z,98.20
2018-04-09T20:41:36.494Z,98.60
2018-04-09T20:44:03.011Z,98.80
2018-04-09T20:46:29.328Z,98.70
2018-04-09T20:48:55.742Z,99.00
2018-04-09T20:51:22.235Z,99.30
2018-04-09T20:53:48.565Z,99.30
2018-04-09T20:56:14.961Z,99.50
2018-04-09T20:58:41.431Z,99.30
2018-04-09T21:01:10.264Z,99.40
2018-04-09T21:03:36.618Z,99.40
2018-04-09T21:06:03.080Z,99.30
2018-04-09T21:08:29.441Z,99.60
2018-04-09T21:10:55.804Z,99.40
2018-04-09T21:13:32.945Z,99.50
2018-04-09T21:16:00.349Z,99.70
2018-04-09T21:18:27.015Z,99.70
2018-04-09T21:20:53.425Z,99.90
2018-04-09T21:23:19.890Z,99.90
2018-04-09T21:25:46.181Z,99.90
2018-04-09T21:28:12.582Z,99.90
2018-04-09T21:30:38.878Z,99.90
2018-04-09T21:33:05.452Z,99.90
2018-04-09T21:35:31.975Z,99.90
2018-04-09T21:37:58.731Z,99.90
2018-04-09T21:40:25.614Z,99.90
2018-04-09T21:42:52.115Z,99.90
2018-04-09T21:45:18.474Z,99.90
2018-04-09T21:47:44.903Z,99.90
2018-04-09T21:50:11.263Z,99.90
2018-04-09T21:52:38.804Z,99.90
2018-04-09T21:55:06.291Z,99.90
2018-04-09T21:57:32.579Z,99.90
2018-04-09T21:59:58.866Z,99.90
2018-04-09T22:02:25.441Z,99.90
2018-04-09T22:04:51.843Z,99.90
2018-04-09T22:07:18.157Z,99.90
2018-04-09T22:09:44.647Z,99.90
2018-04-09T22:12:10.967Z,99.90
2018-04-09T22:14:38.410Z,99.90
2018-04-09T22:17:04.792Z,99.90
2018-04-09T22:19:31.098Z,99.90
2018-04-09T22:21:57.488Z,99.90
2018-04-09T22:24:23.779Z,99.90
2018-04-09T22:26:50.920Z,99.90
2018-04-09T22:29:18.250Z,99.90
2018-04-09T22:31:45.309Z,99.90
2018-04-09T22:34:11.896Z,99.90
2018-04-09T22:36:38.455Z,99.90
2018-04-09T22:39:04.880Z,99.90
2018-04-09T22:41:31.350Z,99.90
2018-04-09T22:43:58.586Z,99.90
2018-04-09T22:46:24.934Z,99.90
2018-04-09T22:48:51.417Z,99.90
2018-04-09T22:51:17.729Z,99.90
2018-04-09T22:53:44.287Z,99.90
2018-04-09T22:56:10.679Z,99.90
2018-04-09T22:58:37.814Z,99.90
2018-04-09T23:01:04.250Z,99.90
2018-04-09T23:03:31.846Z,99.90
2018-04-09T23:05:58.192Z,99.90
2018-04-09T23:08:24.641Z,99.90
2018-04-09T23:10:50.970Z,99.90
2018-04-09T23:13:17.307Z,99.90
2018-04-09T23:15:43.834Z,99.90
2018-04-09T23:18:10.378Z,99.90
2018-04-09T23:20:36.699Z,99.90
2018-04-09T23:23:03.665Z,99.90
2018-04-09T23:25:29.970Z,99.90
2018-04-09T23:27:57.770Z,99.90
2018-04-09T23:30:24.071Z,99.90
2018-04-09T23:32:50.378Z,99.90
2018-04-09T23:35:16.676Z,99.90
2018-04-09T23:37:43.944Z,99.90
2018-04-09T23:40:10.150Z,99.90
2018-04-09T23:42:37.235Z,99.90
2018-04-09T23:45:04.776Z,99.90
2018-04-09T23:47:31.276Z,99.90
2018-04-09T23:49:57.647Z,99.90
2018-04-09T23:52:23.955Z,99.90
2018-04-09T23:54:50.339Z,99.90
2018-04-09T23:57:16.844Z,99.90
2018-04-09T23:59:43.346Z,99.90
